createdAt,value
2018-12-24T00:08:15.179Z,94.90
2018-12-24T00:18:18.726Z,94.80
2018-12-24T00:28:22.299Z,94.60
2018-12-24T00:38:25.844Z,94.20
2018-12-24T00:48:29.371Z,94.50
2018-12-24T00:58:32.933Z,94.00
2018-12-24T01:08:36.473Z,94.60
2018-12-24T01:18:40.041Z,94.40
2018-12-24T01:28:43.779Z,94.50
2018-12-24T01:38:47.339Z,93.90
2018-12-24T01:48:50.907Z,93.80
2018-12-24T01:58:54.462Z,93.70
2018-12-24T02:08:58.023Z,93.00
2018-12-24T02:19:01.595Z,93.30
2018-12-24T02:29:05.134Z,93.00
2018-12-24T02:39:08.686Z,92.70
2018-12-24T02:49:12.208Z,92.40
2018-12-24T02:59:15.830Z,92.80
2018-12-24T03:09:19.377Z,92.60
2018-12-24T03:19:22.937Z,92.00
2018-12-24T03:29:26.493Z,92.40
2018-12-24T03:39:30.055Z,92.70
2018-12-24T03:49:33.647Z,93.30
2018-12-24T03:59:37.210Z,93.70
2018-12-24T04:09:40.779Z,93.50
2018-12-24T04:19:44.344Z,93.60
2018-12-24T04:29:47.893Z,93.50
2018-12-24T04:39:51.462Z,93.70
2018-12-24T04:49:55.026Z,94.00
2018-12-24T04:59:58.597Z,94.40
2018-12-24T05:10:02.164Z,94.50
2018-12-24T05:20:05.719Z,94.60
2018-12-24T05:30:09.286Z,94.50
2018-12-24T05:40:12.866Z,94.50
2018-12-24T05:50:16.408Z,94.00
2018-12-24T06:00:19.977Z,94.10
2018-12-24T06:10:23.527Z,94.60
2018-12-24T06:20:27.109Z,94.30
2018-12-24T06:30:30.657Z,93.80
2018-12-24T06:40:34.217Z,93.40
2018-12-24T06:50:37.859Z,93.10
2018-12-24T07:00:41.428Z,93.20
2018-12-24T07:10:44.995Z,93.20
2018-12-24T07:20:48.605Z,93.10
2018-12-24T07:30:52.560Z,92.30
2018-12-24T07:40:56.123Z,91.40
2018-12-24T07:50:59.691Z,91.20
2018-12-24T08:01:03.255Z,90.90
2018-12-24T08:11:06.825Z,90.30
2018-12-24T08:21:10.389Z,90.60
2018-12-24T08:32:02.829Z,91.10
2018-12-24T08:42:06.289Z,92.20
2018-12-24T08:52:09.759Z,93.00
2018-12-24T09:02:13.186Z,93.30
2018-12-24T09:12:16.668Z,93.50
2018-12-24T09:22:20.124Z,94.00
2018-12-24T09:32:23.668Z,94.20
2018-12-24T09:42:27.138Z,93.80
2018-12-24T09:52:30.618Z,93.40
2018-12-24T10:02:35.578Z,92.90
2018-12-24T10:12:39.041Z,92.90
2018-12-24T10:22:42.600Z,92.00
2018-12-24T10:32:46.165Z,91.30
2018-12-24T10:42:49.582Z,90.20
2018-12-24T10:52:53.097Z,89.50
2018-12-24T11:02:56.560Z,90.40
2018-12-24T11:13:00.019Z,90.90
2018-12-24T11:23:03.463Z,91.90
2018-12-24T11:33:07.000Z,92.30
2018-12-24T11:43:10.457Z,91.50
2018-12-24T11:53:13.903Z,91.00
2018-12-24T12:03:17.375Z,91.60
2018-12-24T12:13:20.787Z,92.00
2018-12-24T12:23:24.246Z,92.00
2018-12-24T12:33:29.590Z,91.70
2018-12-24T12:43:33.119Z,92.00
2018-12-24T12:53:36.562Z,91.80
2018-12-24T13:03:40.169Z,91.70
2018-12-24T13:13:43.647Z,93.40
2018-12-24T13:23:47.087Z,95.30
2018-12-24T13:33:50.793Z,96.30
2018-12-24T13:43:54.422Z,95.90
2018-12-24T13:53:57.999Z,95.60
2018-12-24T14:04:01.439Z,94.70
2018-12-24T14:14:04.975Z,93.80
2018-12-24T14:24:08.429Z,93.30
2018-12-24T14:34:12.203Z,93.30
2018-12-24T14:44:15.655Z,93.00
2018-12-24T14:54:19.111Z,92.80
2018-12-24T15:04:22.533Z,92.90
2018-12-24T15:14:25.991Z,92.50
2018-12-24T15:24:29.436Z,92.30
2018-12-24T15:34:32.904Z,91.80
2018-12-24T15:44:36.365Z,91.90
2018-12-24T15:54:39.882Z,91.80
2018-12-24T16:04:43.402Z,92.30
2018-12-24T16:14:46.862Z,92.40
2018-12-24T16:24:50.312Z,92.10
2018-12-24T16:34:53.794Z,91.90
2018-12-24T16:44:57.252Z,92.20
2018-12-24T16:55:00.714Z,91.40
2018-12-24T17:05:04.441Z,91.30
2018-12-24T17:15:07.892Z,91.70
2018-12-24T17:25:11.356Z,91.60
2018-12-24T17:35:14.781Z,91.60
2018-12-24T17:45:18.234Z,91.00
2018-12-24T17:55:21.706Z,90.60
2018-12-24T18:05:25.180Z,90.40
2018-12-24T18:15:28.627Z,90.20
2018-12-24T18:25:32.587Z,90.40
2018-12-24T18:35:36.228Z,90.10
2018-12-24T18:45:39.664Z,90.20
2018-12-24T18:55:43.214Z,90.00
2018-12-24T19:05:46.685Z,90.20
2018-12-24T19:15:50.147Z,89.10
2018-12-24T19:25:53.613Z,89.30
2018-12-24T19:35:57.070Z,89.40
2018-12-24T19:46:00.524Z,88.70
2018-12-24T19:56:04.101Z,88.40
2018-12-24T20:06:07.573Z,85.40
2018-12-24T20:16:11.039Z,85.30
2018-12-24T20:26:14.490Z,85.80
2018-12-24T20:36:17.937Z,86.50
2018-12-24T20:46:21.403Z,85.60
2018-12-24T20:56:24.869Z,86.30
2018-12-24T21:06:28.457Z,86.70
2018-12-24T21:16:32.043Z,86.90
2018-12-24T21:26:35.567Z,87.40
2018-12-24T21:36:39.035Z,87.20
2018-12-24T21:46:42.506Z,86.80
2018-12-24T21:56:45.961Z,87.30
2018-12-24T22:06:49.425Z,88.10
2018-12-24T22:16:52.887Z,88.00
2018-12-24T22:26:56.303Z,87.60
2018-12-24T22:36:59.851Z,88.30
2018-12-24T22:47:03.358Z,89.40
2018-12-24T22:57:06.809Z,89.40
2018-12-24T23:07:10.256Z,89.00
2018-12-24T23:17:13.711Z,89.80
2018-12-24T23:27:17.189Z,89.40
2018-12-24T23:37:20.631Z,89.80
2018-12-24T23:47:24.051Z,90.00
2018-12-24T23:57:27.522Z,90.30
